createdAt,value
2022-09-22T00:00:15.498Z,101250.16
2022-09-22T00:03:05.933Z,101248.92
2022-09-22T00:05:36.323Z,101242.83
2022-09-22T00:08:06.685Z,101241.77
2022-09-22T00:10:37.010Z,101239.33
2022-09-22T00:13:07.951Z,101236.91
2022-09-22T00:15:38.519Z,101232.43
2022-09-22T00:18:08.803Z,101228.27
2022-09-22T00:20:41.239Z,101232.74
2022-09-22T00:23:11.699Z,101237.02
2022-09-22T00:25:43.019Z,101239.24
2022-09-22T00:28:13.780Z,101241.60
2022-09-22T00:30:44.804Z,101236.85
2022-09-22T00:33:15.523Z,101238.59
2022-09-22T00:35:45.795Z,101233.85
2022-09-22T00:38:16.041Z,101237.05
2022-09-22T00:40:46.346Z,101236.48
2022-09-22T00:43:21.885Z,101241.84
2022-09-22T00:45:56.904Z,101234.84
2022-09-22T00:48:28.903Z,101236.92
2022-09-22T00:51:02.086Z,101236.05
2022-09-22T00:54:12.069Z,101235.21
2022-09-22T00:56:58.332Z,101231.48
2022-09-22T00:59:28.942Z,101233.12
2022-09-22T01:01:59.325Z,101238.72
2022-09-22T01:04:31.346Z,101239.55
2022-09-22T01:07:03.162Z,101241.10
2022-09-22T01:09:34.577Z,101241.11
2022-09-22T01:12:06.407Z,101241.67
2022-09-22T01:15:11.701Z,101240.84
2022-09-22T01:18:13.877Z,101239.81
2022-09-22T01:21:13.349Z,101239.14
2022-09-22T01:24:02.987Z,101240.94
2022-09-22T01:27:00.208Z,101240.70
2022-09-22T01:29:45.652Z,101237.59
2022-09-22T01:32:34.469Z,101233.40
2022-09-22T01:35:16.020Z,101237.30
2022-09-22T01:37:52.347Z,101236.88
2022-09-22T01:40:31.759Z,101237.21
2022-09-22T01:43:30.588Z,101239.16
2022-09-22T01:46:03.988Z,101239.13
2022-09-22T01:48:37.787Z,101240.11
2022-09-22T01:51:15.767Z,101235.98
2022-09-22T01:53:56.116Z,101234.93
2022-09-22T01:56:29.557Z,101237.17
2022-09-22T01:59:05.159Z,101236.84
2022-09-22T02:01:41.585Z,101241.33
2022-09-22T02:04:21.320Z,101238.75
2022-09-22T02:07:11.831Z,101245.05
2022-09-22T02:09:44.562Z,101244.77
2022-09-22T02:12:18.859Z,101244.45
2022-09-22T02:14:49.428Z,101245.91
2022-09-22T02:17:20.891Z,101241.45
2022-09-22T02:19:52.626Z,101245.77
2022-09-22T02:22:23.267Z,101242.51
2022-09-22T02:24:56.934Z,101245.96
2022-09-22T02:27:36.991Z,101243.91
2022-09-22T02:30:11.109Z,101248.94
2022-09-22T02:32:49.844Z,101252.27
2022-09-22T02:35:23.645Z,101250.79
2022-09-22T02:38:20.292Z,101249.27
2022-09-22T02:40:59.919Z,101249.98
2022-09-22T02:43:43.870Z,101253.77
2022-09-22T02:46:19.991Z,101254.80
2022-09-22T02:49:02.487Z,101255.65
2022-09-22T02:51:33.789Z,101257.86
2022-09-22T02:54:04.681Z,101250.61
2022-09-22T02:56:35.428Z,101255.27
2022-09-22T02:59:09.987Z,101253.56
2022-09-22T03:01:40.739Z,101256.82
2022-09-22T03:04:10.963Z,101255.96
2022-09-22T03:06:41.271Z,101257.88
2022-09-22T03:09:13.038Z,101254.22
2022-09-22T03:11:43.237Z,101256.05
2022-09-22T03:14:13.625Z,101255.16
2022-09-22T03:16:43.878Z,101252.07
2022-09-22T03:19:14.096Z,101252.59
2022-09-22T03:21:44.559Z,101250.69
2022-09-22T03:24:15.889Z,101244.48
2022-09-22T03:26:46.433Z,101243.79
2022-09-22T03:29:16.822Z,101244.81
2022-09-22T03:31:47.090Z,101244.79
2022-09-22T03:34:17.207Z,101245.46
2022-09-22T03:36:49.040Z,101244.57
2022-09-22T03:39:19.220Z,101244.99
2022-09-22T03:41:50.109Z,101245.71
2022-09-22T03:44:20.398Z,101246.95
2022-09-22T03:46:54.120Z,101250.09
2022-09-22T03:49:25.228Z,101246.86
2022-09-22T03:51:55.813Z,101244.11
2022-09-22T03:54:26.310Z,101247.56
2022-09-22T03:56:56.694Z,101244.95
2022-09-22T03:59:27.040Z,101245.45
2022-09-22T04:01:58.406Z,101246.29
2022-09-22T04:04:28.728Z,101245.80
2022-09-22T04:07:02.204Z,101245.96
2022-09-22T04:09:36.867Z,101243.20
2022-09-22T04:12:07.549Z,101242.36
2022-09-22T04:14:38.439Z,101245.81
2022-09-22T04:17:09.369Z,101244.95
2022-09-22T04:19:40.904Z,101241.67
2022-09-22T04:22:11.024Z,101241.98
2022-09-22T04:24:41.627Z,101243.02
2022-09-22T04:27:20.591Z,101243.57
2022-09-22T04:29:51.709Z,101246.73
2022-09-22T04:32:24.328Z,101244.17
2022-09-22T04:34:54.756Z,101245.88
2022-09-22T04:37:24.929Z,101254.44
2022-09-22T04:39:56.406Z,101254.83
2022-09-22T04:42:26.824Z,101252.98
2022-09-22T04:45:02.281Z,101251.98
2022-09-22T04:47:32.564Z,101252.43
2022-09-22T04:50:02.696Z,101252.02
2022-09-22T04:52:32.977Z,101255.55
2022-09-22T04:55:03.278Z,101256.71
2022-09-22T04:57:33.686Z,101258.70
2022-09-22T05:00:04.325Z,101257.58
2022-09-22T05:02:36.885Z,101254.98
2022-09-22T05:05:07.641Z,101256.59
2022-09-22T05:07:37.947Z,101249.95
2022-09-22T05:10:08.498Z,101256.02
2022-09-22T05:12:48.059Z,101252.80
2022-09-22T05:15:18.569Z,101252.48
2022-09-22T05:17:52.751Z,101256.64
2022-09-22T05:20:23.541Z,101250.73
2022-09-22T05:22:55.139Z,101255.02
2022-09-22T05:25:25.266Z,101257.23
2022-09-22T05:27:55.827Z,101259.33
2022-09-22T05:30:29.541Z,101263.83
2022-09-22T05:34:10.555Z,101270.08
2022-09-22T05:36:41.153Z,101273.89
2022-09-22T05:39:11.288Z,101274.52
2022-09-22T05:41:41.671Z,101274.14
2022-09-22T05:44:12.019Z,101277.85
2022-09-22T05:46:42.341Z,101282.31
2022-09-22T05:49:12.589Z,101274.61
2022-09-22T05:51:43.438Z,101274.87
2022-09-22T05:54:14.451Z,101270.77
2022-09-22T05:56:44.699Z,101275.63
2022-09-22T05:59:16.358Z,101273.09
2022-09-22T06:01:46.758Z,101278.32
2022-09-22T06:04:17.090Z,101276.97
2022-09-22T06:06:48.164Z,101271.32
2022-09-22T06:09:18.499Z,101273.32
2022-09-22T06:11:48.919Z,101273.73
2022-09-22T06:14:19.156Z,101274.67
2022-09-22T06:16:49.559Z,101279.20
2022-09-22T06:19:19.787Z,101275.80
2022-09-22T06:21:50.415Z,101281.52
2022-09-22T06:24:20.533Z,101278.93
2022-09-22T06:26:54.023Z,101279.48
2022-09-22T06:29:24.096Z,101282.80
2022-09-22T06:31:54.523Z,101287.96
2022-09-22T06:34:26.368Z,101288.44
2022-09-22T06:36:58.733Z,101293.40
2022-09-22T06:39:29.263Z,101296.32
2022-09-22T06:42:01.554Z,101297.00
2022-09-22T06:44:32.553Z,101301.10
2022-09-22T06:47:08.730Z,101297.18
2022-09-22T06:49:39.082Z,101298.99
2022-09-22T06:57:13.965Z,101294.73
2022-09-22T06:59:44.436Z,101297.54
2022-09-22T07:02:15.037Z,101296.45
2022-09-22T07:04:45.901Z,101290.70
2022-09-22T07:07:16.876Z,101288.91
2022-09-22T07:09:47.490Z,101289.33
2022-09-22T07:12:18.299Z,101291.32
2022-09-22T07:14:49.815Z,101296.23
2022-09-22T07:17:20.911Z,101305.11
2022-09-22T07:19:51.984Z,101302.05
2022-09-22T07:22:22.369Z,101298.46
2022-09-22T07:24:52.759Z,101294.77
2022-09-22T07:27:26.691Z,101296.89
2022-09-22T07:29:57.884Z,101300.41
2022-09-22T07:32:32.740Z,101300.14
2022-09-22T07:35:03.937Z,101301.38
2022-09-22T07:37:36.157Z,101307.27
2022-09-22T07:40:06.832Z,101307.64
2022-09-22T07:42:37.337Z,101308.06
2022-09-22T07:45:16.887Z,101305.59
2022-09-22T07:48:04.950Z,101302.27
2022-09-22T07:50:35.295Z,101307.35
2022-09-22T07:53:05.997Z,101307.79
2022-09-22T07:55:38.983Z,101308.00
2022-09-22T07:58:11.091Z,101301.12
2022-09-22T08:01:17.802Z,101304.74
2022-09-22T08:03:48.320Z,101301.73
2022-09-22T08:06:23.515Z,101298.14
2022-09-22T08:08:57.647Z,101295.76
2022-09-22T08:11:30.147Z,101292.66
2022-09-22T08:14:05.729Z,101296.31
2022-09-22T08:17:14.347Z,101292.00
2022-09-22T08:19:48.536Z,101290.12
2022-09-22T08:22:20.567Z,101292.39
2022-09-22T08:24:50.844Z,101299.35
2022-09-22T08:27:21.447Z,101298.17
2022-09-22T08:29:51.699Z,101302.02
2022-09-22T08:32:22.218Z,101307.60
2022-09-22T08:34:52.798Z,101308.66
2022-09-22T08:37:23.686Z,101311.69
2022-09-22T08:39:54.865Z,101307.25
2022-09-22T08:42:26.049Z,101306.14
2022-09-22T08:45:10.930Z,101308.45
2022-09-22T08:48:09.738Z,101307.33
2022-09-22T08:51:03.271Z,101303.54
2022-09-22T08:54:39.187Z,101299.56
2022-09-22T08:58:00.870Z,101299.05
2022-09-22T09:00:42.478Z,101289.37
2022-09-22T09:03:56.732Z,101293.04
2022-09-22T09:06:42.028Z,101289.23
2022-09-22T09:09:23.833Z,101282.51
2022-09-22T09:12:02.178Z,101284.44
2022-09-22T09:15:03.401Z,101284.27
2022-09-22T09:17:39.115Z,101286.17
2022-09-22T09:20:26.775Z,101284.80
2022-09-22T09:22:58.009Z,101283.42
2022-09-22T09:25:53.431Z,101285.17
2022-09-22T09:28:42.531Z,101284.67
2022-09-22T09:31:32.726Z,101296.29
2022-09-22T09:34:09.385Z,101289.38
2022-09-22T09:36:53.287Z,101290.23
2022-09-22T09:39:33.783Z,101284.70
2022-09-22T09:46:57.220Z,101286.27
2022-09-22T09:49:27.586Z,101284.00
2022-09-22T09:52:00.432Z,101278.48
2022-09-22T09:54:31.368Z,101272.95
2022-09-22T09:57:14.207Z,101271.23
2022-09-22T10:00:03.997Z,101270.56
2022-09-22T10:02:52.864Z,101275.40
2022-09-22T10:05:27.358Z,101275.39
2022-09-22T10:08:17.017Z,101274.02
2022-09-22T10:10:48.397Z,101275.77
2022-09-22T10:13:42.379Z,101271.41
2022-09-22T10:25:48.668Z,101268.81
2022-09-22T10:28:21.726Z,101266.91
2022-09-22T10:31:04.049Z,101270.88
2022-09-22T10:34:13.944Z,101268.11
2022-09-22T10:36:59.217Z,101272.09
2022-09-22T10:48:55.897Z,101260.70
2022-09-22T10:51:40.327Z,101259.65
2022-09-22T10:54:26.485Z,101255.33
2022-09-22T10:57:09.582Z,101258.27
2022-09-22T10:59:55.843Z,101255.15
2022-09-22T11:03:04.419Z,101253.75
2022-09-22T11:06:14.485Z,101252.36
2022-09-22T11:09:24.585Z,101258.08
2022-09-22T11:12:32.283Z,101256.50
2022-09-22T11:15:23.849Z,101263.04
2022-09-22T11:18:09.390Z,101262.88
2022-09-22T11:20:47.299Z,101264.27
2022-09-22T11:28:37.185Z,101257.53
2022-09-22T11:31:08.783Z,101253.55
2022-09-22T11:33:57.017Z,101251.15
2022-09-22T11:36:39.248Z,101244.23
2022-09-22T11:39:26.785Z,101241.64
2022-09-22T11:42:26.694Z,101243.02
2022-09-22T11:49:24.599Z,101237.15
2022-09-22T11:52:31.740Z,101236.98
2022-09-22T11:55:14.373Z,101239.39
2022-09-22T11:57:49.734Z,101237.31
2022-09-22T12:00:22.998Z,101234.55
2022-09-22T12:03:02.582Z,101232.98
2022-09-22T12:05:33.013Z,101235.05
2022-09-22T12:08:18.539Z,101238.36
2022-09-22T12:20:58.657Z,101225.70
2022-09-22T12:23:39.160Z,101223.64
2022-09-22T12:26:15.334Z,101228.50
2022-09-22T12:28:47.657Z,101227.27
2022-09-22T12:31:20.882Z,101225.18
2022-09-22T12:33:54.700Z,101225.36
2022-09-22T12:37:16.563Z,101224.83
2022-09-22T12:39:50.791Z,101223.64
2022-09-22T12:42:21.204Z,101216.19
2022-09-22T12:44:59.981Z,101212.02
2022-09-22T12:47:37.624Z,101211.69
2022-09-22T12:50:30.218Z,101210.30
2022-09-22T12:58:32.681Z,101207.34
2022-09-22T13:01:35.674Z,101206.64
2022-09-22T13:04:22.824Z,101209.25
2022-09-22T13:06:55.963Z,101207.35
2022-09-22T13:09:28.895Z,101216.37
2022-09-22T13:12:15.140Z,101216.36
2022-09-22T13:15:03.465Z,101217.92
2022-09-22T13:17:42.997Z,101221.39
2022-09-22T13:20:43.242Z,101217.59
2022-09-22T13:23:58.823Z,101216.21
2022-09-22T13:26:36.528Z,101218.29
2022-09-22T13:29:17.727Z,101217.25
2022-09-22T13:31:51.567Z,101216.72
2022-09-22T13:34:27.806Z,101216.38
2022-09-22T13:41:14.709Z,101214.10
2022-09-22T13:44:54.927Z,101216.02
2022-09-22T13:47:28.970Z,101209.63
2022-09-22T13:50:26.171Z,101210.64
2022-09-22T13:53:23.789Z,101214.98
2022-09-22T13:55:55.753Z,101214.80
2022-09-22T13:58:37.193Z,101217.39
2022-09-22T14:01:25.777Z,101219.83
2022-09-22T14:03:57.410Z,101224.15
2022-09-22T14:06:32.927Z,101224.34
2022-09-22T14:09:04.814Z,101234.21
2022-09-22T14:11:35.539Z,101238.16
2022-09-22T14:14:08.140Z,101234.36
2022-09-22T14:16:59.643Z,101231.77
2022-09-22T14:20:10.987Z,101228.82
2022-09-22T14:22:45.488Z,101234.20
2022-09-22T14:25:23.404Z,101231.09
2022-09-22T14:27:58.198Z,101228.83
2022-09-22T14:30:31.684Z,101225.37
2022-09-22T14:33:05.805Z,101229.70
2022-09-22T14:35:38.630Z,101223.48
2022-09-22T14:38:15.300Z,101220.18
2022-09-22T14:40:57.525Z,101217.23
2022-09-22T14:43:35.865Z,101215.83
2022-09-22T14:46:25.901Z,101214.11
2022-09-22T14:48:58.885Z,101206.32
2022-09-22T14:51:32.055Z,101213.07
2022-09-22T14:54:09.419Z,101209.79
2022-09-22T15:01:45.155Z,101198.86
2022-09-22T15:04:27.993Z,101204.95
2022-09-22T15:07:10.310Z,101200.79
2022-09-22T15:09:47.377Z,101193.84
2022-09-22T15:12:47.454Z,101191.42
2022-09-22T15:15:29.626Z,101188.48
2022-09-22T15:18:22.212Z,101190.20
2022-09-22T15:21:13.444Z,101188.83
2022-09-22T15:23:56.408Z,101183.10
2022-09-22T15:26:35.608Z,101189.16
2022-09-22T15:29:17.672Z,101194.52
2022-09-22T15:31:54.608Z,101206.65
2022-09-22T15:34:32.317Z,101210.80
2022-09-22T15:42:10.358Z,101218.79
2022-09-22T15:44:46.315Z,101219.48
2022-09-22T15:47:27.233Z,101217.57
2022-09-22T15:50:01.522Z,101215.33
2022-09-22T15:52:34.495Z,101214.45
2022-09-22T15:55:09.828Z,101213.77
2022-09-22T15:57:44.418Z,101216.36
2022-09-22T16:00:26.691Z,101214.46
2022-09-22T16:03:01.140Z,101209.27
2022-09-22T16:05:34.651Z,101211.02
2022-09-22T16:08:09.056Z,101210.84
2022-09-22T16:10:40.780Z,101216.52
2022-09-22T16:13:15.033Z,101217.41
2022-09-22T16:21:10.128Z,101219.30
2022-09-22T16:23:42.406Z,101218.96
2022-09-22T16:26:13.033Z,101225.52
2022-09-22T16:28:43.407Z,101226.21
2022-09-22T16:31:21.047Z,101227.79
2022-09-22T16:34:06.515Z,101229.35
2022-09-22T16:38:10.593Z,101228.30
2022-09-22T16:40:49.331Z,101231.24
2022-09-22T16:43:23.557Z,101232.27
2022-09-22T16:46:13.843Z,101231.59
2022-09-22T16:48:47.526Z,101227.96
2022-09-22T16:51:36.626Z,101229.35
2022-09-22T16:54:14.590Z,101225.88
2022-09-22T17:01:58.329Z,101232.45
2022-09-22T17:04:34.378Z,101229.84
2022-09-22T17:07:06.377Z,101224.32
2022-09-22T17:09:41.255Z,101227.78
2022-09-22T17:17:09.733Z,101230.17
2022-09-22T17:19:43.701Z,101228.96
2022-09-22T17:22:26.124Z,101228.80
2022-09-22T17:24:59.224Z,101233.98
2022-09-22T17:27:32.574Z,101229.31
2022-09-22T17:30:05.710Z,101226.71
2022-09-22T17:32:53.441Z,101227.78
2022-09-22T17:35:28.388Z,101227.25
2022-09-22T17:39:17.013Z,101224.13
2022-09-22T17:42:10.050Z,101223.61
2022-09-22T17:44:44.707Z,101224.29
2022-09-22T17:47:32.942Z,101222.19
2022-09-22T17:50:19.973Z,101227.04
2022-09-22T17:53:18.570Z,101230.33
2022-09-22T17:55:51.725Z,101232.22
2022-09-22T17:58:29.787Z,101232.74
2022-09-22T18:05:42.125Z,101240.01
2022-09-22T18:08:23.369Z,101239.31
2022-09-22T18:10:56.381Z,101238.98
2022-09-22T18:13:36.175Z,101236.52
2022-09-22T18:16:33.751Z,101236.86
2022-09-22T18:19:11.753Z,101235.13
2022-09-22T18:21:45.796Z,101235.46
2022-09-22T18:24:21.984Z,101238.37
2022-09-22T18:26:53.947Z,101242.00
2022-09-22T18:29:28.761Z,101242.52
2022-09-22T18:32:04.738Z,101245.27
2022-09-22T18:34:39.110Z,101250.26
2022-09-22T18:41:45.466Z,101251.41
2022-09-22T18:44:19.050Z,101256.23
2022-09-22T18:46:52.352Z,101256.94
2022-09-22T18:49:23.152Z,101257.95
2022-09-22T18:51:54.533Z,101257.41
2022-09-22T18:54:24.934Z,101253.26
2022-09-22T18:57:10.980Z,101258.44
2022-09-22T18:59:44.627Z,101258.77
2022-09-22T19:02:16.381Z,101259.95
2022-09-22T19:09:21.274Z,101255.89
2022-09-22T19:11:54.047Z,101254.84
2022-09-22T19:14:39.467Z,101256.04
2022-09-22T19:17:12.733Z,101256.38
2022-09-22T19:19:50.823Z,101258.27
2022-09-22T19:22:31.934Z,101257.40
2022-09-22T19:29:40.179Z,101257.23
2022-09-22T19:32:13.399Z,101256.36
2022-09-22T19:34:44.776Z,101258.05
2022-09-22T19:37:18.783Z,101258.89
2022-09-22T19:39:53.303Z,101260.23
2022-09-22T19:42:30.197Z,101265.04
2022-09-22T19:45:14.343Z,101267.10
2022-09-22T19:47:50.957Z,101263.80
2022-09-22T19:50:37.418Z,101261.89
2022-09-22T19:53:14.766Z,101265.17
2022-09-22T20:00:26.583Z,101263.45
2022-09-22T20:02:59.707Z,101262.58
2022-09-22T20:11:26.773Z,101259.56
2022-09-22T20:14:15.526Z,101253.84
2022-09-22T20:17:06.640Z,101257.81
2022-09-22T20:19:39.531Z,101257.30
2022-09-22T20:22:30.878Z,101252.63
2022-09-22T20:25:05.479Z,101251.02
2022-09-22T20:27:38.288Z,101248.75
2022-09-22T20:30:09.471Z,101250.13
2022-09-22T20:32:47.327Z,101247.36
2022-09-22T20:35:19.378Z,101251.66
2022-09-22T20:37:49.992Z,101248.70
2022-09-22T20:40:23.468Z,101247.46
2022-09-22T20:42:55.918Z,101248.29
2022-09-22T20:45:26.633Z,101247.94
2022-09-22T20:47:57.085Z,101249.46
2022-09-22T20:50:27.347Z,101250.45
2022-09-22T20:52:57.620Z,101252.53
2022-09-22T20:55:27.969Z,101254.27
2022-09-22T20:58:05.069Z,101253.74
2022-09-22T21:00:35.390Z,101249.59
2022-09-22T21:03:06.781Z,101247.86
2022-09-22T21:05:37.239Z,101243.02
2022-09-22T21:08:24.710Z,101245.41
2022-09-22T21:10:57.098Z,101241.60
2022-09-22T21:13:27.286Z,101240.02
2022-09-22T21:16:07.348Z,101237.39
2022-09-22T21:18:39.663Z,101234.96
2022-09-22T21:21:09.871Z,101234.08
2022-09-22T21:23:39.830Z,101238.50
2022-09-22T21:26:12.535Z,101241.54
2022-09-22T21:28:42.933Z,101240.66
2022-09-22T21:31:15.010Z,101240.15
2022-09-22T21:33:45.461Z,101239.80
2022-09-22T21:36:18.586Z,101234.80
2022-09-22T21:38:51.351Z,101232.38
2022-09-22T21:41:23.950Z,101231.17
2022-09-22T21:43:55.525Z,101231.15
2022-09-22T21:46:29.937Z,101230.27
2022-09-22T21:49:04.983Z,101231.64
2022-09-22T21:51:41.700Z,101232.79
2022-09-22T21:54:18.200Z,101228.63
2022-09-22T21:56:48.758Z,101228.78
2022-09-22T21:59:19.077Z,101228.58
2022-09-22T22:01:49.467Z,101226.09
2022-09-22T22:04:19.776Z,101230.01
2022-09-22T22:06:50.029Z,101229.43
2022-09-22T22:09:28.564Z,101227.65
2022-09-22T22:12:00.220Z,101227.13
2022-09-22T22:14:33.809Z,101221.95
2022-09-22T22:17:04.072Z,101223.48
2022-09-22T22:19:34.905Z,101228.16
2022-09-22T22:22:07.745Z,101225.05
2022-09-22T22:24:41.173Z,101223.86
2022-09-22T22:27:14.022Z,101228.00
2022-09-22T22:29:44.257Z,101227.13
2022-09-22T22:32:14.484Z,101224.54
2022-09-22T22:34:44.695Z,101224.68
2022-09-22T22:37:14.985Z,101225.34
2022-09-22T22:39:45.146Z,101227.38
2022-09-22T22:42:15.332Z,101224.73
2022-09-22T22:44:45.476Z,101226.06
2022-09-22T22:47:15.515Z,101221.33
2022-09-22T22:49:45.926Z,101216.61
2022-09-22T22:52:16.275Z,101210.76
2022-09-22T22:54:46.538Z,101208.88
2022-09-22T22:57:16.827Z,101208.20
2022-09-22T22:59:47.665Z,101208.90
2022-09-22T23:02:17.708Z,101211.84
2022-09-22T23:04:47.780Z,101209.62
2022-09-22T23:07:17.891Z,101206.88
2022-09-22T23:09:48.066Z,101205.46
2022-09-22T23:12:19.643Z,101202.11
2022-09-22T23:14:49.773Z,101202.67
2022-09-22T23:17:19.984Z,101200.90
2022-09-22T23:19:50.573Z,101199.25
2022-09-22T23:22:21.011Z,101198.17
2022-09-22T23:24:51.164Z,101196.92
2022-09-22T23:27:21.127Z,101192.23
2022-09-22T23:29:51.066Z,101188.56
2022-09-22T23:32:20.874Z,101190.09
2022-09-22T23:34:50.719Z,101187.48
2022-09-22T23:37:20.667Z,101185.06
2022-09-22T23:39:51.182Z,101180.95
2022-09-22T23:42:21.156Z,101177.02
2022-09-22T23:44:51.021Z,101177.05
2022-09-22T23:47:20.734Z,101174.68
2022-09-22T23:49:50.469Z,101172.14
2022-09-22T23:52:22.582Z,101169.73
2022-09-22T23:54:52.320Z,101169.56
2022-09-22T23:57:22.014Z,101170.59
2022-09-22T23:59:52.027Z,101167.26
